Nearby METAR Reports

 

KLOT - Romeoville/Chi, Illinois, USA
Distance from station: N 3mi, 5km
Updated: Wed, 28-Jun-2017 5:15am CDT
Clear
Clear
 Wind from S
Wind: S 8 mph , 13 km/h
Temperature: 59°F , 15°C
Dew Point: 46°F , 8°C
Humidity: 63%
Barometer: 30.01 inHg , 1016.3 hPa
Clouds: Clear
Visibility: 10 miles , 16 km
2017/06/28 10:15 KLOT 281015Z AUTO 18007KT 10SM CLR 15/08 A3001 RMK AO2 T01500081
KJOT - Joliet, Illinois, USA
Distance from station: WSW 5mi, 7km
Updated: Wed, 28-Jun-2017 5:15am CDT
Clear
Clear
 Wind from SSE
Wind: SSE 5 mph , 7 km/h
Temperature: 61°F , 16°C
Dew Point: 50°F , 10°C
Humidity: 68%
Barometer: 30.01 inHg , 1016.3 hPa
Clouds: Clear
Visibility: 10 miles , 16 km
2017/06/28 10:15 KJOT 281015Z AUTO 16004KT 10SM CLR 16/10 A3001 RMK AO2 T01550101
 
KC09 - Morris-Washburn, Illinois, USA
Distance from station: WSW 18mi, 29km
Updated: Wed, 28-Jun-2017 5:15am CDT
Partly cloudy
Partly cloudy
 Wind from S
Wind: S 9 mph , 15 km/h
Temperature: 61°F , 16°C
Dew Point: 48°F , 9°C
Humidity: 63%
Barometer: 30.00 inHg , 1015.9 hPa
Clouds: Partly cloudy
Visibility: 10 miles , 16 km
Cloud details: Partly cloudy 4500 ft
2017/06/28 10:15 KC09 281015Z AUTO 17008KT 10SM SCT045 16/09 A3000 RMK AO2 T01550091
KARR - Chicago/Aurora, Illinois, USA
Distance from station: NW 24mi, 39km
Updated: Wed, 28-Jun-2017 4:52am CDT
Clear
Clear
 Wind from SSE
Wind: SSE 10 mph , 17 km/h
Temperature: 59°F , 15°C
Dew Point: 50°F , 10°C
Humidity: 72%
Barometer: 30.00 inHg , 1015.9 hPa
Clouds: Clear
Visibility: 10 miles , 16 km
2017/06/28 09:52 KARR 280952Z AUTO 16009KT 10SM CLR 15/10 A3000 RMK AO2 SLP154 T01500100
 
KMDW - Chicago, Illinois, USA
Distance from station: NE 25mi, 39km
Updated: Wed, 28-Jun-2017 4:53am CDT
Partly cloudy
Partly cloudy
 Wind from S
Wind: S 8 mph , 13 km/h
Temperature: 63°F , 17°C
Dew Point: 48°F , 9°C
Humidity: 59%
Barometer: 30.02 inHg , 1016.6 hPa
Clouds: Partly cloudy
Visibility: 10 miles , 16 km
Cloud details: Partly cloudy 25000 ft
2017/06/28 09:53 KMDW 280953Z 18007KT 10SM SCT250 17/09 A3002 RMK AO2 SLP158 T01720089
KDPA - Chicago/Dupage, Illinois, USA
Distance from station: NNW 26mi, 42km
Updated: Wed, 28-Jun-2017 4:52am CDT
Clear
Clear
 Wind from S
Wind: S 7 mph , 11 km/h
Temperature: 57°F , 14°C
Dew Point: 52°F , 11°C
Humidity: 82%
Barometer: 29.99 inHg , 1015.6 hPa
Clouds: Clear
Visibility: 10 miles , 16 km
2017/06/28 09:52 KDPA 280952Z 17006KT 10SM CLR 14/11 A2999 RMK AO2 SLP154 T01390106
 
KIGQ - Chicago/Lansing, Illinois, USA
Distance from station: E 30mi, 48km
Updated: Wed, 28-Jun-2017 5:15am CDT
Clear
Clear
 Wind from S
Wind: S 8 mph , 13 km/h
Temperature: 57°F , 14°C
Dew Point: 46°F , 8°C
Humidity: 67%
Barometer: 30.04 inHg , 1017.3 hPa
Clouds: Clear
Visibility: 10 miles , 16 km
2017/06/28 10:15 KIGQ 281015Z AUTO 18007KT 10SM CLR 14/08 A3004 RMK AO2 T01400083
KORD - Chicago O'hare, Illinois, USA
Distance from station: NNE 31mi, 50km
Updated: Wed, 28-Jun-2017 4:51am CDT
Partly cloudy
Partly cloudy
 Wind from S
Wind: S 9 mph , 15 km/h
Temperature: 61°F , 16°C
Dew Point: 46°F , 8°C
Humidity: 59%
Barometer: 30.00 inHg , 1015.9 hPa
Clouds: Partly cloudy
Visibility: 10 miles , 16 km
Cloud details: Few Clouds 18000 ft
Partly cloudy 25000 ft
2017/06/28 09:51 KORD 280951Z 18008KT 10SM FEW180 SCT250 16/08 A3000 RMK AO2 SLP157 T01610083
 
KGYY - Gary Regional, Indiana, USA
Distance from station: E 36mi, 58km
Updated: Wed, 28-Jun-2017 4:45am CDT
Few Clouds
Few Clouds
 Wind from SSE
Wind: SSE 8 mph , 13 km/h
Temperature: 61°F , 16°C
Dew Point: 46°F , 8°C
Humidity: 59%
Barometer: 30.03 inHg , 1016.9 hPa
Clouds: Few Clouds
Visibility: 10 miles , 16 km
Cloud details: Few Clouds 25000 ft
2017/06/28 09:45 KGYY 280945Z 16007KT 10SM FEW250 16/08 A3003
KIKK - Kankakee, Illinois, USA
Distance from station: SSE 36mi, 58km
Updated: Wed, 28-Jun-2017 5:15am CDT
Clear
Clear
 Wind from calm
Wind: Calm
Barometer: 30.04 inHg , 1017.3 hPa
Clouds: Clear
Visibility: 10 miles , 16 km
2017/06/28 10:15 KIKK 281015Z AUTO 00000KT 10SM CLR A3004 RMK AO2
 
KDKB - De Kalb, Illinois, USA
Distance from station: NW 40mi, 65km
Updated: Wed, 28-Jun-2017 5:15am CDT
Clear
Clear
 Wind from SSE
Wind: SSE 14 mph , 22 km/h
Temperature: 59°F , 15°C
Dew Point: 50°F , 10°C
Humidity: 72%
Barometer: 29.98 inHg , 1015.2 hPa
Clouds: Clear
Visibility: 10 miles , 16 km
2017/06/28 10:15 KDKB 281015Z AUTO 16012KT 10SM CLR 15/10 A2998 RMK AO2 T01480097
KPWK - Palwaukee, Illinois, USA
Distance from station: NNE 41mi, 65km
Updated: Wed, 28-Jun-2017 4:52am CDT
Clear
Clear
 Wind from S
Wind: S 9 mph , 15 km/h
Temperature: 61°F , 16°C
Dew Point: 48°F , 9°C
Humidity: 63%
Barometer: 30.01 inHg , 1016.3 hPa
Clouds: Clear
Visibility: 10 miles , 16 km
2017/06/28 09:52 KPWK 280952Z AUTO 18008KT 10SM CLR 16/09 A3001 RMK AO2 SLP161 T01610094